Time;durP1;ratioP1;P1;durP2;ratioP2;P2;SDS_P1;SDS_P2;PMS_P1;PMS_P2;Temp;Humidity;BMP_temperature;BMP_pressure;BME280_temperature;BME280_humidity;BME280_pressure;Samples;Min_cycle;Max_cycle;Signal;HPM_P1;HPM_P2
2024/04/16 00:01:34;;;;;;;5.40;3.50;;;;;;;11.69;88.27;97136.17;226935;1272;25281;-77
2024/04/16 00:06:36;;;;;;;5.50;3.20;;;;;;;11.68;87.98;97153.86;226846;1272;22518;-76
2024/04/16 00:11:38;;;;;;;5.30;3.30;;;;;;;11.66;87.85;97148.06;226837;1269;22531;-78
2024/04/16 00:16:46;;;;;;;4.80;2.90;;;;;;;11.66;87.40;97157.59;226820;1270;22564;-78
2024/04/16 00:21:47;;;;;;;4.40;2.60;;;;;;;11.67;87.35;97178.50;226804;1266;22564;-78
2024/04/16 00:26:50;;;;;;;4.20;2.80;;;;;;;11.66;87.04;97185.88;226788;1270;25416;-77
2024/04/16 00:31:51;;;;;;;5.20;3.30;;;;;;;11.62;86.91;97184.15;226833;1270;22549;-77
2024/04/16 00:36:53;;;;;;;5.00;3.50;;;;;;;11.61;87.03;97179.70;226922;1273;22518;-77
2024/04/16 00:41:55;;;;;;;4.30;3.30;;;;;;;11.62;86.95;97180.25;226803;1273;22534;-78
2024/04/16 00:46:57;;;;;;;7.90;3.90;;;;;;;11.59;86.99;97175.21;226848;1270;24923;-78
2024/04/16 00:51:59;;;;;;;5.40;3.80;;;;;;;11.56;86.83;97164.69;226871;1269;25310;-77
2024/04/16 00:57:01;;;;;;;5.30;4.10;;;;;;;11.55;86.87;97157.70;226880;1263;22559;-77
2024/04/16 01:02:04;;;;;;;5.60;3.80;;;;;;;11.57;87.16;97145.56;226789;1272;22639;-77
2024/04/16 01:07:06;;;;;;;5.90;4.00;;;;;;;11.58;86.75;97132.66;226912;1272;25408;-77
2024/04/16 01:12:08;;;;;;;5.70;3.80;;;;;;;11.57;86.57;97128.33;226828;1269;22519;-78
2024/04/16 01:17:10;;;;;;;5.10;4.00;;;;;;;11.52;86.33;97122.70;226763;1272;248768;-78
2024/04/16 01:22:12;;;;;;;5.20;4.70;;;;;;;11.45;86.27;97114.52;226890;1269;22548;-76
2024/04/16 01:27:14;;;;;;;4.80;4.10;;;;;;;11.38;86.07;97120.52;226740;1266;22542;-77
2024/04/16 01:32:16;;;;;;;4.40;3.70;;;;;;;11.35;86.61;97129.35;226847;1270;22558;-78
2024/04/16 01:37:18;;;;;;;5.90;4.60;;;;;;;11.34;86.21;97127.14;226755;1271;22566;-78
2024/04/16 01:42:20;;;;;;;4.60;4.10;;;;;;;11.33;86.46;97115.53;226789;1270;22565;-79
2024/04/16 01:47:22;;;;;;;4.50;3.80;;;;;;;11.33;86.71;97130.89;226817;1270;22561;-79
2024/04/16 01:52:24;;;;;;;6.10;3.80;;;;;;;11.32;86.30;97132.98;226811;1272;23100;-77
2024/04/16 01:57:26;;;;;;;6.30;4.20;;;;;;;11.30;86.18;97140.06;226820;1271;23290;-77
2024/04/16 02:02:28;;;;;;;4.40;4.00;;;;;;;11.28;86.30;97166.26;226783;1270;22540;-79
2024/04/16 02:07:33;;;;;;;6.00;4.10;;;;;;;11.23;86.37;97185.63;226785;1269;22638;-75
2024/04/16 02:12:35;;;;;;;4.70;3.80;;;;;;;11.18;86.35;97178.20;226839;1271;22535;-77
2024/04/16 02:17:39;;;;;;;5.00;2.90;;;;;;;11.12;86.15;97162.29;226771;1273;22532;-77
2024/04/16 02:22:41;;;;;;;3.00;2.00;;;;;;;11.09;85.04;97135.67;226834;1273;22535;-77
2024/04/16 02:27:43;;;;;;;2.00;1.70;;;;;;;11.08;83.68;97125.81;226797;1269;22535;-77
2024/04/16 02:32:45;;;;;;;4.10;1.50;;;;;;;11.05;82.45;97117.29;226845;1273;22531;-77
2024/04/16 02:37:48;;;;;;;3.00;1.80;;;;;;;10.95;82.02;97118.61;226916;1272;23785;-77
2024/04/16 02:42:50;;;;;;;5.10;2.20;;;;;;;10.80;81.86;97119.23;226876;1270;22529;-76
2024/04/16 02:47:52;;;;;;;4.30;2.00;;;;;;;10.67;81.85;97126.46;226788;1269;22645;-77
2024/04/16 02:52:54;;;;;;;5.80;2.20;;;;;;;10.53;82.06;97125.10;226781;1273;22651;-78
2024/04/16 02:57:56;;;;;;;2.80;2.10;;;;;;;10.40;82.11;97151.98;226745;1273;22531;-79
2024/04/16 03:02:58;;;;;;;3.20;1.20;;;;;;;10.28;81.84;97173.85;226781;1271;22538;-76
2024/04/16 03:08:00;;;;;;;4.80;1.90;;;;;;;10.18;80.92;97166.20;226767;1271;22535;-77
2024/04/16 03:13:03;;;;;;;3.90;1.10;;;;;;;10.08;80.23;97181.86;226878;1272;22651;-76
2024/04/16 03:18:05;;;;;;;3.60;1.60;;;;;;;10.01;79.34;97181.88;226891;1269;22531;-78
2024/04/16 03:23:07;;;;;;;4.10;1.10;;;;;;;9.97;79.01;97193.63;226881;1269;22765;-77
2024/04/16 03:28:09;;;;;;;4.30;0.80;;;;;;;9.89;77.84;97235.29;226751;1273;25256;-78
2024/04/16 03:33:11;;;;;;;3.40;1.00;;;;;;;9.74;76.45;97250.84;226748;1250;22539;-80
2024/04/16 03:38:13;;;;;;;4.10;0.80;;;;;;;9.43;76.18;97281.54;226802;1272;22543;-78
2024/04/16 03:43:15;;;;;;;3.30;0.70;;;;;;;9.10;76.43;97293.06;226849;1273;22561;-77
2024/04/16 03:48:17;;;;;;;2.80;0.80;;;;;;;8.83;76.73;97282.20;226770;1267;22567;-78
2024/04/16 03:53:19;;;;;;;1.40;0.70;;;;;;;8.63;76.88;97263.51;226768;1269;23187;-77
2024/04/16 03:58:21;;;;;;;1.60;0.60;;;;;;;8.45;77.24;97257.14;226893;1272;22549;-77
2024/04/16 04:03:23;;;;;;;8.20;1.80;;;;;;;8.32;77.49;97282.55;226863;1273;22531;-78
2024/04/16 04:08:26;;;;;;;1.60;0.80;;;;;;;8.22;78.16;97304.55;226763;1269;22540;-77
2024/04/16 04:13:27;;;;;;;4.70;1.00;;;;;;;8.17;78.15;97324.82;226829;1273;25407;-77
2024/04/16 04:18:29;;;;;;;1.00;0.90;;;;;;;8.08;77.86;97332.81;226776;1272;22942;-76
2024/04/16 04:23:31;;;;;;;2.70;0.90;;;;;;;8.00;78.04;97352.46;226751;1272;22542;-76
2024/04/16 04:28:33;;;;;;;1.20;0.60;;;;;;;7.94;78.02;97388.66;226750;1269;22526;-76
2024/04/16 04:33:35;;;;;;;2.10;0.90;;;;;;;7.89;78.08;97380.55;226715;1272;22542;-76
2024/04/16 04:38:37;;;;;;;1.30;0.70;;;;;;;7.90;78.21;97384.69;226753;1273;22628;-76
2024/04/16 04:43:39;;;;;;;2.10;0.90;;;;;;;7.90;78.14;97428.90;226763;1270;22535;-77
2024/04/16 04:48:41;;;;;;;2.60;0.70;;;;;;;7.86;77.78;97442.67;226800;1273;22550;-77
2024/04/16 04:53:43;;;;;;;1.70;0.70;;;;;;;7.84;77.79;97444.82;226785;1272;22579;-75
2024/04/16 04:58:45;;;;;;;2.70;0.70;;;;;;;7.79;77.44;97446.64;226776;1270;23284;-77
2024/04/16 05:03:48;;;;;;;0.60;0.50;;;;;;;7.72;77.39;97451.23;226678;1273;22540;-77
2024/04/16 05:08:50;;;;;;;3.50;1.40;;;;;;;7.68;76.91;97430.71;226875;1273;22558;-78
2024/04/16 05:13:51;;;;;;;1.00;0.70;;;;;;;7.63;76.22;97421.56;226864;1273;22562;-78
2024/04/16 05:18:53;;;;;;;1.00;1.00;;;;;;;7.57;76.04;97438.35;226775;1269;22533;-77
2024/04/16 05:23:56;;;;;;;1.70;0.70;;;;;;;7.52;75.65;97443.97;226817;1272;22531;-77
2024/04/16 05:28:58;;;;;;;1.20;0.80;;;;;;;7.49;75.76;97431.39;226785;1273;23015;-76
2024/04/16 05:34:00;;;;;;;1.40;1.00;;;;;;;7.48;75.54;97420.27;226802;1270;22539;-76
2024/04/16 05:39:01;;;;;;;1.80;1.00;;;;;;;7.51;75.53;97427.07;226911;1267;24928;-78
2024/04/16 05:44:03;;;;;;;3.10;1.30;;;;;;;7.55;75.28;97449.15;227056;1262;22539;-76
2024/04/16 05:49:05;;;;;;;3.60;1.40;;;;;;;7.61;75.45;97427.47;227293;1269;22543;-79
2024/04/16 05:54:07;;;;;;;3.40;1.30;;;;;;;7.70;75.14;97388.09;227091;1266;25360;-76
2024/04/16 05:59:08;;;;;;;2.90;1.40;;;;;;;7.76;74.44;97442.88;226671;1266;24235;-77
2024/04/16 06:04:11;;;;;;;2.50;1.30;;;;;;;7.73;73.84;97458.16;226498;1263;22547;-74
2024/04/16 06:09:13;;;;;;;5.10;2.30;;;;;;;7.69;73.46;97436.70;226605;1258;22524;-75
2024/04/16 06:14:15;;;;;;;4.10;2.20;;;;;;;7.70;73.27;97451.86;226496;1256;22569;-77
2024/04/16 06:19:17;;;;;;;5.20;1.90;;;;;;;7.77;73.07;97457.88;226215;1254;22577;-77
2024/04/16 06:24:18;;;;;;;3.90;1.80;;;;;;;7.96;72.89;97484.54;226408;1257;25411;-74
2024/04/16 06:29:21;;;;;;;4.40;2.40;;;;;;;8.14;72.48;97498.52;226634;1266;22550;-75
2024/04/16 06:34:23;;;;;;;4.10;2.10;;;;;;;8.25;72.05;97511.14;226564;1260;22562;-73
2024/04/16 06:39:25;;;;;;;4.30;1.80;;;;;;;8.42;71.70;97481.38;226525;1260;22552;-76
2024/04/16 06:44:27;;;;;;;3.10;1.50;;;;;;;8.65;71.50;97459.41;226566;1266;22536;-73
2024/04/16 06:49:29;;;;;;;3.10;1.50;;;;;;;8.89;70.95;97482.61;226791;1257;22548;-77
2024/04/16 06:54:31;;;;;;;2.10;1.20;;;;;;;8.96;70.39;97500.13;226903;1267;22553;-78
2024/04/16 06:59:33;;;;;;;2.10;1.20;;;;;;;9.01;69.97;97485.91;226672;1253;22539;-75
2024/04/16 07:04:35;;;;;;;2.70;1.20;;;;;;;9.15;69.69;97475.96;226578;1254;25411;-76
2024/04/16 07:09:37;;;;;;;1.10;0.90;;;;;;;9.52;69.87;97465.67;226653;1253;22573;-76
2024/04/16 07:14:39;;;;;;;1.20;0.90;;;;;;;9.88;69.35;97473.20;226621;1261;22571;-75
2024/04/16 07:19:41;;;;;;;2.50;0.90;;;;;;;10.14;68.51;97477.01;226518;1257;22694;-76
2024/04/16 07:24:43;;;;;;;0.80;0.70;;;;;;;10.22;66.82;97460.67;226615;1254;23039;-75
2024/04/16 07:29:45;;;;;;;1.30;0.80;;;;;;;10.34;66.23;97473.11;226688;1264;25426;-74
2024/04/16 07:34:47;;;;;;;2.40;1.20;;;;;;;10.42;64.79;97493.69;226591;1257;22539;-76
2024/04/16 07:39:49;;;;;;;3.50;0.50;;;;;;;10.41;64.05;97504.46;226509;1264;22569;-77
2024/04/16 07:44:51;;;;;;;0.90;0.60;;;;;;;10.33;63.61;97525.14;226743;1253;22544;-77
2024/04/16 07:49:52;;;;;;;0.60;0.50;;;;;;;10.25;63.93;97542.74;226680;1251;22550;-75
2024/04/16 07:54:54;;;;;;;0.70;0.50;;;;;;;10.15;64.31;97537.45;226604;1254;22535;-77
2024/04/16 07:59:56;;;;;;;2.40;1.20;;;;;;;10.09;64.33;97524.50;226358;1251;24315;-75
2024/04/16 08:04:58;;;;;;;1.50;1.30;;;;;;;9.91;64.10;97513.31;226650;1266;22992;-77
2024/04/16 08:10:02;;;;;;;1.80;0.80;;;;;;;9.75;64.64;97520.63;226658;1263;22736;-76
2024/04/16 08:15:05;;;;;;;1.20;0.50;;;;;;;9.87;63.58;97536.36;226488;1269;22596;-76
2024/04/16 08:20:07;;;;;;;0.70;0.40;;;;;;;9.95;62.10;97548.44;226677;1251;22555;-77
2024/04/16 08:25:11;;;;;;;1.20;0.50;;;;;;;10.02;60.96;97535.08;226875;1262;22710;-80
2024/04/16 08:30:14;;;;;;;1.40;0.30;;;;;;;10.13;61.07;97543.56;227035;1261;24924;-76
2024/04/16 08:35:27;;;;;;;0.40;0.40;;;;;;;10.33;61.35;97520.96;226940;1270;22547;-77
2024/04/16 08:40:29;;;;;;;1.20;0.50;;;;;;;10.49;60.78;97533.80;226847;1263;22648;-78
2024/04/16 08:45:32;;;;;;;0.90;0.50;;;;;;;10.66;61.06;97543.30;227066;1270;22491;-84
2024/04/16 08:50:36;;;;;;;1.30;0.50;;;;;;;10.66;59.60;97534.86;226924;1268;22692;-79
2024/04/16 08:55:39;;;;;;;1.50;0.60;;;;;;;10.45;59.62;97518.08;227002;1269;22558;-77
2024/04/16 09:00:42;;;;;;;2.20;0.80;;;;;;;10.34;59.54;97530.33;226682;1251;22563;-79
2024/04/16 09:05:45;;;;;;;1.80;0.70;;;;;;;10.37;59.92;97561.66;226966;1269;22578;-76
2024/04/16 09:10:52;;;;;;;2.70;1.20;;;;;;;10.50;59.72;97559.14;226686;1253;22564;-89
2024/04/16 09:15:55;;;;;;;1.50;0.80;;;;;;;10.52;59.64;97559.38;226694;1254;22937;-76
2024/04/16 09:20:57;;;;;;;0.90;0.60;;;;;;;10.46;58.49;97539.55;226765;1267;22539;-85
2024/04/16 09:25:59;;;;;;;0.80;0.80;;;;;;;10.40;58.55;97554.04;226636;1251;25412;-76
2024/04/16 09:31:01;;;;;;;2.20;0.70;;;;;;;10.56;58.60;97541.69;226915;1269;27051;-75
2024/04/16 09:36:03;;;;;;;1.20;0.60;;;;;;;10.49;58.16;97516.54;226927;1269;24358;-75
2024/04/16 09:41:05;;;;;;;2.70;1.00;;;;;;;10.41;58.48;97527.80;226672;1258;22532;-74
2024/04/16 09:46:17;;;;;;;1.60;0.70;;;;;;;10.42;58.79;97529.48;226826;1264;22537;-76
2024/04/16 09:51:20;;;;;;;1.70;0.80;;;;;;;10.54;58.27;97545.54;226690;1251;22689;-77
2024/04/16 09:56:26;;;;;;;0.90;0.70;;;;;;;10.81;58.92;97547.25;226695;1269;22547;-78
2024/04/16 10:01:28;;;;;;;0.80;0.50;;;;;;;10.90;57.61;97528.58;226700;1252;25391;-75
2024/04/16 10:06:30;;;;;;;0.80;0.70;;;;;;;10.73;57.09;97524.24;226713;1269;23290;-75
2024/04/16 10:11:33;;;;;;;1.20;0.60;;;;;;;10.53;57.82;97537.63;226885;1267;22535;-76
2024/04/16 10:16:35;;;;;;;0.80;0.70;;;;;;;10.39;58.21;97555.15;226870;1253;22529;-77
2024/04/16 10:22:10;;;;;;;3.30;0.80;;;;;;;10.42;58.63;97540.90;226636;1253;22546;-75
2024/04/16 10:28:31;;;;;;;1.90;1.00;;;;;;;10.83;59.16;97546.83;225910;1257;22612;-75
2024/04/16 10:33:55;;;;;;;2.30;1.40;;;;;;;11.12;58.32;97546.39;225790;1270;22543;-74
2024/04/16 10:38:58;;;;;;;2.00;1.10;;;;;;;11.12;57.26;97554.27;225026;1258;25867;-78
2024/04/16 10:44:02;;;;;;;3.00;1.20;;;;;;;11.07;57.14;97561.89;225536;1274;22602;-77
2024/04/16 10:49:05;;;;;;;2.80;1.10;;;;;;;11.03;57.08;97541.84;225485;1274;22580;-76
2024/04/16 10:54:07;;;;;;;3.80;0.80;;;;;;;11.03;56.75;97537.34;225569;1267;22546;-76
2024/04/16 10:59:10;;;;;;;1.00;0.80;;;;;;;11.16;57.63;97531.60;225998;1268;22634;-77
2024/04/16 11:04:17;;;;;;;1.80;0.70;;;;;;;11.31;57.05;97511.27;226319;1264;22748;-77
2024/04/16 11:09:19;;;;;;;1.30;0.80;;;;;;;11.32;56.43;97503.90;226633;1269;22541;-77
2024/04/16 11:14:23;;;;;;;1.80;0.90;;;;;;;11.32;56.58;97519.56;226950;1253;22551;-76
2024/04/16 11:19:26;;;;;;;1.10;0.90;;;;;;;11.41;56.90;97518.42;226870;1254;22535;-74
2024/04/16 11:24:29;;;;;;;1.30;0.70;;;;;;;11.75;56.80;97528.72;226716;1270;23051;-75
2024/04/16 11:29:31;;;;;;;2.10;0.90;;;;;;;11.80;55.36;97529.10;226941;1258;22563;-76
2024/04/16 11:34:32;;;;;;;2.10;1.00;;;;;;;11.95;56.09;97515.06;226824;1265;22535;-76
2024/04/16 11:39:40;;;;;;;3.00;1.00;;;;;;;12.15;55.45;97516.34;226948;1251;22566;-77
2024/04/16 11:44:42;;;;;;;2.00;0.80;;;;;;;12.20;55.06;97525.36;227161;1267;22544;-76
2024/04/16 11:49:44;;;;;;;2.40;0.70;;;;;;;12.28;54.82;97517.55;227019;1266;22535;-76
2024/04/16 11:54:46;;;;;;;2.60;1.00;;;;;;;12.31;54.84;97527.42;226975;1260;24405;-77
2024/04/16 11:59:49;;;;;;;3.50;0.90;;;;;;;12.29;55.01;97539.29;226709;1257;22542;-75
2024/04/16 12:04:50;;;;;;;4.80;2.30;;;;;;;12.21;54.50;97520.55;226687;1256;22542;-75
2024/04/16 12:09:52;;;;;;;3.00;0.80;;;;;;;12.01;54.38;97516.64;226862;1267;22620;-77
2024/04/16 12:14:54;;;;;;;1.80;0.90;;;;;;;11.84;53.93;97508.23;226846;1254;24253;-78
2024/04/16 12:19:56;;;;;;;4.10;1.10;;;;;;;11.71;54.28;97501.17;226766;1262;22549;-82
2024/04/16 12:24:58;;;;;;;3.00;1.10;;;;;;;11.81;55.58;97491.77;226792;1251;22539;-81
2024/04/16 12:30:00;;;;;;;1.60;1.20;;;;;;;11.91;55.54;97477.81;226860;1257;25429;-81
2024/04/16 12:35:02;;;;;;;2.40;1.40;;;;;;;11.85;55.62;97468.56;226711;1253;22581;-79
2024/04/16 12:40:04;;;;;;;3.30;1.10;;;;;;;11.80;55.93;97487.23;226781;1250;22618;-81
2024/04/16 12:45:06;;;;;;;3.00;1.10;;;;;;;11.76;55.92;97486.57;226595;1266;22537;-81
2024/04/16 12:50:09;;;;;;;3.20;1.00;;;;;;;11.60;55.43;97495.73;226618;1250;22570;-78
2024/04/16 12:55:11;;;;;;;3.30;1.40;;;;;;;11.41;56.04;97501.91;226787;1265;22542;-81
2024/04/16 13:00:12;;;;;;;2.20;1.00;;;;;;;11.38;56.65;97479.95;226730;1266;22674;-80
2024/04/16 13:05:19;;;;;;;2.60;1.10;;;;;;;11.47;56.68;97479.33;226804;1251;22552;-81
2024/04/16 13:10:23;;;;;;;2.40;0.90;;;;;;;11.50;56.39;97463.12;227043;1269;22535;-81
2024/04/16 13:15:26;;;;;;;2.50;1.10;;;;;;;11.58;56.86;97454.95;226652;1267;135422;-84
2024/04/16 13:20:28;;;;;;;2.80;1.50;;;;;;;11.73;56.55;97468.04;226688;1267;22570;-87
2024/04/16 13:25:32;;;;;;;2.60;1.20;;;;;;;11.88;56.54;97487.11;226776;1250;22570;-85
2024/04/16 13:30:34;;;;;;;2.90;1.20;;;;;;;11.95;56.52;97483.26;226734;1261;22549;-83
2024/04/16 13:35:36;;;;;;;2.80;1.40;;;;;;;11.96;56.45;97474.81;227009;1257;22535;-81
2024/04/16 13:40:38;;;;;;;3.40;1.10;;;;;;;11.83;56.18;97474.89;226814;1265;22579;-81
2024/04/16 13:45:40;;;;;;;2.90;0.90;;;;;;;11.65;56.99;97481.86;226713;1263;22583;-79
2024/04/16 13:50:45;;;;;;;2.20;0.80;;;;;;;11.41;56.81;97489.20;226396;1251;22554;-83
2024/04/16 13:55:49;;;;;;;0.90;0.70;;;;;;;11.30;57.04;97490.58;226993;1266;24590;-83
2024/04/16 14:00:51;;;;;;;3.90;1.60;;;;;;;11.18;56.88;97500.03;226467;1272;22561;-83
2024/04/16 14:05:53;;;;;;;3.60;1.20;;;;;;;10.92;59.12;97496.96;226559;1263;24276;-83
2024/04/16 14:10:55;;;;;;;2.40;1.50;;;;;;;10.60;60.22;97507.36;226645;1273;22542;-81
2024/04/16 14:15:57;;;;;;;1.50;1.00;;;;;;;10.19;62.10;97542.70;226424;1272;22544;-83
2024/04/16 14:20:59;;;;;;;1.40;1.10;;;;;;;9.66;62.94;97556.22;226616;1267;25247;-82
2024/04/16 14:26:01;;;;;;;2.10;0.90;;;;;;;9.24;64.08;97561.84;226727;1272;25104;-82
2024/04/16 14:31:04;;;;;;;2.00;1.00;;;;;;;8.80;65.62;97540.02;226703;1270;22616;-82
2024/04/16 14:36:07;;;;;;;1.80;0.80;;;;;;;8.67;66.98;97538.30;226997;1270;25336;-82
2024/04/16 14:41:09;;;;;;;5.40;1.30;;;;;;;8.87;66.98;97533.75;226937;1266;22639;-82
2024/04/16 14:46:11;;;;;;;4.80;1.20;;;;;;;9.17;67.49;97527.52;226915;1270;22555;-81
2024/04/16 14:51:12;;;;;;;2.00;1.10;;;;;;;9.54;67.49;97522.65;226837;1273;22612;-82
2024/04/16 14:56:15;;;;;;;3.00;1.00;;;;;;;9.95;67.44;97514.34;226891;1270;22522;-81
2024/04/16 15:01:16;;;;;;;3.30;1.20;;;;;;;10.18;66.78;97505.20;226836;1269;24247;-81
2024/04/16 15:06:19;;;;;;;2.50;1.50;;;;;;;10.30;66.36;97497.39;226855;1270;22575;-80
2024/04/16 15:11:21;;;;;;;1.20;0.70;;;;;;;10.25;66.41;97498.45;226932;1269;24282;-81
2024/04/16 15:16:23;;;;;;;3.20;1.20;;;;;;;9.79;65.02;97522.44;226879;1270;22549;-81
2024/04/16 15:21:25;;;;;;;5.00;1.50;;;;;;;8.81;67.31;97555.46;226910;1267;22553;-81
2024/04/16 15:26:27;;;;;;;2.60;1.40;;;;;;;8.09;68.94;97559.39;226930;1267;22537;-82
2024/04/16 15:31:28;;;;;;;3.50;1.20;;;;;;;7.78;70.23;97553.22;226915;1266;22597;-80
2024/04/16 15:36:30;;;;;;;2.20;1.20;;;;;;;7.73;71.32;97526.61;226915;1273;22544;-80
2024/04/16 15:41:32;;;;;;;1.20;0.80;;;;;;;7.85;71.49;97512.86;226861;1270;22551;-83
2024/04/16 15:46:35;;;;;;;2.50;1.10;;;;;;;7.88;71.34;97506.42;226900;1269;26189;-83
2024/04/16 15:51:36;;;;;;;2.20;0.90;;;;;;;8.01;71.39;97498.41;226829;1269;22590;-79
2024/04/16 15:56:38;;;;;;;2.60;1.00;;;;;;;8.18;71.62;97494.59;226814;1273;22614;-80
2024/04/16 16:01:40;;;;;;;5.10;1.40;;;;;;;8.32;71.50;97492.56;226924;1266;22653;-81
2024/04/16 16:06:43;;;;;;;1.70;1.10;;;;;;;8.43;71.69;97487.48;226930;1267;25275;-81
2024/04/16 16:11:45;;;;;;;1.60;1.30;;;;;;;8.51;71.67;97470.10;226875;1269;22545;-79
2024/04/16 16:16:47;;;;;;;2.30;1.60;;;;;;;8.56;71.54;97462.48;226904;1270;22556;-80
2024/04/16 16:21:49;;;;;;;3.30;2.00;;;;;;;8.59;71.25;97454.63;226947;1270;22613;-80
2024/04/16 16:26:51;;;;;;;6.50;2.20;;;;;;;8.59;71.02;97449.91;226859;1270;22542;-80
2024/04/16 16:31:53;;;;;;;3.20;2.20;;;;;;;8.58;71.09;97436.84;226904;1270;25036;-80
2024/04/16 16:36:56;;;;;;;5.10;3.10;;;;;;;8.60;70.96;97421.38;226820;1266;22558;-79
2024/04/16 16:41:57;;;;;;;6.10;4.30;;;;;;;8.57;71.07;97416.15;226937;1267;22561;-79
2024/04/16 16:46:59;;;;;;;6.60;4.30;;;;;;;8.47;71.21;97411.05;226857;1267;22546;-79
2024/04/16 16:52:01;;;;;;;6.30;4.40;;;;;;;8.29;70.86;97414.69;226876;1266;22636;-80
2024/04/16 16:57:04;;;;;;;6.20;4.20;;;;;;;8.12;71.10;97406.09;226919;1266;23016;-80
2024/04/16 17:02:06;;;;;;;5.50;4.00;;;;;;;8.01;71.80;97398.59;226902;1270;22532;-79
2024/04/16 17:07:08;;;;;;;5.90;3.80;;;;;;;7.95;72.18;97408.20;226812;1266;22531;-79
2024/04/16 17:12:10;;;;;;;7.10;4.00;;;;;;;7.90;72.34;97420.73;226852;1270;24222;-80
2024/04/16 17:17:13;;;;;;;10.20;4.90;;;;;;;7.83;72.79;97419.45;226788;1270;24928;-79
2024/04/16 17:22:16;;;;;;;9.70;5.50;;;;;;;7.72;72.68;97412.67;226883;1272;23657;-80
2024/04/16 17:27:17;;;;;;;10.30;5.90;;;;;;;7.61;72.94;97419.58;226819;1269;22984;-80
2024/04/16 17:32:19;;;;;;;7.90;6.00;;;;;;;7.51;73.04;97419.80;226898;1269;22551;-80
2024/04/16 17:37:21;;;;;;;11.10;6.60;;;;;;;7.37;73.26;97420.43;226871;1269;22534;-80
2024/04/16 17:42:24;;;;;;;15.90;7.90;;;;;;;7.24;73.21;97420.13;226883;1266;22649;-79
2024/04/16 17:47:26;;;;;;;11.30;7.30;;;;;;;7.06;73.49;97419.45;226821;1266;22542;-79
2024/04/16 17:52:28;;;;;;;11.80;7.00;;;;;;;6.89;73.39;97420.86;226941;1270;22548;-79
2024/04/16 17:57:29;;;;;;;11.90;6.50;;;;;;;6.73;73.51;97432.69;226869;1269;25272;-79
2024/04/16 18:02:31;;;;;;;8.30;5.60;;;;;;;6.61;73.63;97446.29;227135;1270;25516;-80
2024/04/16 18:07:33;;;;;;;7.30;4.70;;;;;;;6.54;73.63;97447.55;227398;1266;22544;-80
2024/04/16 18:12:35;;;;;;;8.60;5.20;;;;;;;6.50;73.36;97449.97;227402;1268;22541;-79
2024/04/16 18:17:38;;;;;;;12.40;6.10;;;;;;;6.46;73.55;97448.48;227210;1270;22604;-79
2024/04/16 18:22:40;;;;;;;12.70;6.60;;;;;;;6.41;73.32;97455.03;227397;1269;23045;-80
2024/04/16 18:27:43;;;;;;;13.80;7.90;;;;;;;6.34;73.36;97456.55;227140;1270;22829;-79
2024/04/16 18:32:45;;;;;;;16.60;8.90;;;;;;;6.28;73.81;97458.56;227377;1269;25352;-80
2024/04/16 18:37:47;;;;;;;13.60;7.90;;;;;;;6.22;73.60;97453.65;227380;1272;22545;-81
2024/04/16 18:42:50;;;;;;;12.20;6.20;;;;;;;6.16;74.07;97457.68;227187;1272;22552;-80
2024/04/16 18:47:52;;;;;;;13.70;6.80;;;;;;;6.13;74.11;97457.21;227445;1266;24260;-79
2024/04/16 18:52:54;;;;;;;11.70;5.80;;;;;;;6.09;74.24;97449.85;227188;1269;22647;-80
2024/04/16 18:57:56;;;;;;;9.80;5.60;;;;;;;6.05;74.24;97452.13;227389;1269;22550;-81
2024/04/16 19:02:58;;;;;;;10.60;4.60;;;;;;;6.06;74.53;97454.64;227358;1272;22545;-81
2024/04/16 19:08:02;;;;;;;10.50;5.20;;;;;;;6.07;74.54;97450.05;227409;1269;24279;-80
2024/04/16 19:13:04;;;;;;;7.80;4.50;;;;;;;6.06;74.69;97446.70;227250;1272;22545;-80
2024/04/16 19:18:08;;;;;;;9.10;4.20;;;;;;;6.06;74.52;97437.58;227392;1269;22531;-81
2024/04/16 19:23:10;;;;;;;9.10;3.70;;;;;;;6.07;74.65;97430.54;227418;1267;22547;-81
2024/04/16 19:28:12;;;;;;;7.50;4.00;;;;;;;6.09;74.41;97429.23;227202;1270;22538;-79
2024/04/16 19:33:13;;;;;;;8.60;4.00;;;;;;;6.12;74.33;97421.27;227401;1269;22539;-79
2024/04/16 19:38:15;;;;;;;5.30;2.40;;;;;;;6.18;74.13;97421.59;227182;1266;22547;-79
2024/04/16 19:43:17;;;;;;;6.10;3.10;;;;;;;6.24;74.15;97415.40;227374;1266;25358;-80
2024/04/16 19:48:19;;;;;;;5.30;3.00;;;;;;;6.26;73.89;97415.80;227421;1266;22535;-79
2024/04/16 19:53:21;;;;;;;6.00;3.30;;;;;;;6.24;73.67;97409.30;227387;1269;23035;-79
2024/04/16 19:58:23;;;;;;;6.10;3.10;;;;;;;6.22;73.72;97408.70;227397;1266;22617;-81
2024/04/16 20:03:26;;;;;;;6.90;3.70;;;;;;;6.19;73.57;97407.27;227387;1266;22544;-81
2024/04/16 20:08:30;;;;;;;5.40;3.20;;;;;;;6.17;73.67;97409.84;227432;1269;22539;-79
2024/04/16 20:13:33;;;;;;;8.60;3.10;;;;;;;6.13;73.86;97412.73;227296;1270;22533;-80
2024/04/16 20:18:35;;;;;;;6.00;3.20;;;;;;;6.11;73.45;97413.42;227373;1270;22534;-81
2024/04/16 20:23:41;;;;;;;5.90;3.50;;;;;;;6.07;73.82;97415.41;227339;1269;22542;-80
2024/04/16 20:28:43;;;;;;;6.10;3.40;;;;;;;6.04;73.72;97406.02;227431;1270;22531;-80
2024/04/16 20:33:46;;;;;;;6.60;3.30;;;;;;;6.00;73.92;97408.58;227417;1267;22535;-81
2024/04/16 20:38:48;;;;;;;9.50;3.60;;;;;;;5.97;73.86;97412.63;227407;1269;22479;-80
2024/04/16 20:43:49;;;;;;;5.30;2.90;;;;;;;5.94;74.09;97405.03;227382;1267;22563;-79
2024/04/16 20:48:51;;;;;;;7.50;3.00;;;;;;;5.90;73.87;97401.17;227238;1271;22545;-79
2024/04/16 20:53:53;;;;;;;6.70;2.70;;;;;;;5.87;73.78;97394.59;227323;1269;22538;-80
2024/04/16 20:58:55;;;;;;;6.30;2.90;;;;;;;5.85;74.00;97390.46;227308;1266;22566;-80
2024/04/16 21:03:57;;;;;;;5.30;2.90;;;;;;;5.82;73.88;97395.33;227235;1272;22535;-81
2024/04/16 21:09:03;;;;;;;3.80;2.50;;;;;;;5.77;74.13;97395.82;227381;1272;22568;-81
2024/04/16 21:14:05;;;;;;;6.50;2.60;;;;;;;5.71;73.94;97386.59;227475;1267;22531;-81
2024/04/16 21:19:07;;;;;;;7.30;3.00;;;;;;;5.67;74.55;97383.25;227245;1272;22565;-80
2024/04/16 21:24:09;;;;;;;5.00;2.50;;;;;;;5.63;74.17;97381.17;227396;1270;22568;-80
2024/04/16 21:29:10;;;;;;;5.50;2.90;;;;;;;5.58;74.49;97374.21;227396;1270;22538;-79
2024/04/16 21:34:12;;;;;;;5.30;3.10;;;;;;;5.55;74.21;97371.88;227200;1272;22554;-80
2024/04/16 21:39:14;;;;;;;7.70;3.30;;;;;;;5.48;74.38;97374.95;227393;1270;22558;-79
2024/04/16 21:44:16;;;;;;;7.70;3.20;;;;;;;5.42;74.64;97370.46;227190;1272;22607;-79
2024/04/16 21:49:18;;;;;;;6.70;3.00;;;;;;;5.35;74.76;97365.65;227415;1271;22539;-79
2024/04/16 21:54:19;;;;;;;6.50;2.90;;;;;;;5.26;74.93;97357.05;227215;1260;22540;-80
2024/04/16 21:59:26;;;;;;;7.70;2.80;;;;;;;5.22;74.99;97350.48;226953;1272;22534;-80
2024/04/16 22:04:59;;;;;;;5.30;2.80;;;;;;;5.18;75.28;97347.92;226986;1273;25415;-79
2024/04/16 22:10:32;;;;;;;4.20;2.80;;;;;;;5.15;75.32;97345.89;226929;1273;22587;-77
2024/04/16 22:15:52;;;;;;;3.90;2.40;;;;;;;5.14;75.35;97345.11;226948;1260;24213;-79
2024/04/16 22:20:55;;;;;;;3.80;2.60;;;;;;;5.12;75.76;97349.60;226935;1273;22557;-80
2024/04/16 22:25:57;;;;;;;5.40;3.90;;;;;;;5.11;75.73;97348.17;226844;1269;22543;-79
2024/04/16 22:31:00;;;;;;;6.50;3.20;;;;;;;5.09;75.64;97356.58;226950;1272;22671;-80
2024/04/16 22:36:02;;;;;;;5.50;3.10;;;;;;;5.08;76.08;97362.71;226862;1269;22686;-80
2024/04/16 22:41:04;;;;;;;6.30;3.80;;;;;;;5.04;76.01;97363.70;226791;1269;22542;-81
2024/04/16 22:46:06;;;;;;;6.30;3.80;;;;;;;4.97;76.02;97358.05;226863;1273;22563;-79
2024/04/16 22:51:08;;;;;;;7.20;3.60;;;;;;;4.92;76.29;97362.36;226859;1273;22556;-80
2024/04/16 22:56:09;;;;;;;6.70;4.00;;;;;;;4.91;75.80;97375.60;226793;1273;22583;-79
2024/04/16 23:01:11;;;;;;;6.30;4.30;;;;;;;4.85;75.92;97387.45;226826;1271;22642;-80
2024/04/16 23:06:15;;;;;;;6.20;3.90;;;;;;;4.75;75.61;97380.98;226809;1271;22521;-80
2024/04/16 23:11:17;;;;;;;6.70;3.60;;;;;;;4.64;76.03;97383.20;226783;1269;22542;-80
2024/04/16 23:16:18;;;;;;;8.10;4.30;;;;;;;4.56;76.21;97384.73;226800;1269;23133;-79
2024/04/16 23:21:20;;;;;;;7.30;4.60;;;;;;;4.49;76.27;97382.29;226869;1272;22557;-79
2024/04/16 23:26:23;;;;;;;10.20;5.20;;;;;;;4.42;75.95;97383.84;226878;1273;25288;-82
2024/04/16 23:31:25;;;;;;;10.80;5.50;;;;;;;4.37;76.40;97379.05;226763;1272;22535;-81
2024/04/16 23:36:27;;;;;;;8.30;4.60;;;;;;;4.32;76.70;97376.25;226820;1269;25912;-80